createdAt,value
2023-10-04T00:00:22.887Z,20.70
2023-10-04T00:02:53.721Z,20.70
2023-10-04T00:05:24.509Z,20.60
2023-10-04T00:07:54.380Z,20.60
2023-10-04T00:10:25.011Z,20.60
2023-10-04T00:12:55.005Z,20.60
2023-10-04T00:15:27.345Z,20.50
2023-10-04T00:17:56.898Z,20.50
2023-10-04T00:20:33.087Z,20.40
2023-10-04T00:23:02.558Z,20.40
2023-10-04T00:25:34.380Z,20.40
2023-10-04T00:28:04.254Z,20.30
2023-10-04T00:30:34.002Z,20.20
2023-10-04T00:33:04.108Z,20.20
2023-10-04T00:35:32.745Z,20.10
2023-10-04T00:38:02.057Z,20.10
2023-10-04T00:40:33.036Z,20.00
2023-10-04T00:43:14.614Z,20.00
2023-10-04T00:45:46.903Z,20.00
2023-10-04T00:48:19.357Z,19.80
2023-10-04T00:50:48.446Z,19.80
2023-10-04T00:53:19.001Z,19.80
2023-10-04T00:55:50.494Z,19.80
2023-10-04T00:58:19.516Z,19.80
2023-10-04T01:00:49.905Z,19.80
2023-10-04T01:03:23.703Z,19.80
2023-10-04T01:05:54.039Z,19.70
2023-10-04T01:08:25.304Z,19.80
2023-10-04T01:10:55.979Z,19.70
2023-10-04T01:13:27.816Z,19.70
2023-10-04T01:15:58.865Z,19.60
2023-10-04T01:18:30.204Z,19.60
2023-10-04T01:20:58.793Z,19.60
2023-10-04T01:23:29.793Z,19.60
2023-10-04T01:25:58.250Z,19.50
2023-10-04T01:28:29.609Z,19.50
2023-10-04T01:31:03.288Z,19.50
2023-10-04T01:33:32.143Z,19.50
2023-10-04T01:36:01.232Z,19.50
2023-10-04T01:38:33.539Z,19.50
2023-10-04T01:41:02.110Z,19.50
2023-10-04T01:43:30.661Z,19.50
2023-10-04T01:46:01.638Z,19.40
2023-10-04T01:48:33.486Z,19.30
2023-10-04T01:51:04.466Z,19.30
2023-10-04T01:53:36.876Z,19.20
2023-10-04T01:56:06.028Z,19.20
2023-10-04T01:58:34.845Z,19.20
2023-10-04T02:01:04.223Z,19.20
2023-10-04T02:03:32.961Z,19.20
2023-10-04T02:06:02.580Z,19.20
2023-10-04T02:08:33.330Z,19.20
2023-10-04T02:11:07.604Z,19.20
2023-10-04T02:13:38.040Z,19.10
2023-10-04T02:16:10.105Z,19.10
2023-10-04T02:18:38.724Z,19.00
2023-10-04T02:21:08.945Z,19.00
2023-10-04T02:23:38.300Z,19.00
2023-10-04T02:26:08.439Z,19.00
2023-10-04T02:28:37.133Z,18.90
2023-10-04T02:31:05.728Z,18.80
2023-10-04T02:33:35.945Z,18.80
2023-10-04T02:36:06.182Z,18.80
2023-10-04T02:38:35.900Z,18.80
2023-10-04T02:41:07.451Z,18.80
2023-10-04T02:43:38.370Z,18.90
2023-10-04T02:46:07.598Z,18.80
2023-10-04T02:48:37.529Z,18.70
2023-10-04T02:51:07.002Z,18.70
2023-10-04T02:53:38.929Z,18.60
2023-10-04T02:56:08.657Z,18.70
2023-10-04T02:58:38.541Z,18.70
2023-10-04T03:01:07.373Z,18.60
2023-10-04T03:03:37.326Z,18.60
2023-10-04T03:06:06.252Z,18.60
2023-10-04T03:08:36.405Z,18.60
2023-10-04T03:11:05.606Z,18.50
2023-10-04T03:13:34.664Z,18.40
2023-10-04T03:16:05.064Z,18.40
2023-10-04T03:18:36.837Z,18.30
2023-10-04T03:21:21.606Z,18.30
2023-10-04T03:23:50.691Z,18.20
2023-10-04T03:26:19.861Z,18.20
2023-10-04T03:28:48.425Z,18.20
2023-10-04T03:31:20.005Z,18.20
2023-10-04T03:33:52.691Z,18.20
2023-10-04T03:36:22.807Z,18.30
2023-10-04T03:38:51.603Z,18.20
2023-10-04T03:41:20.932Z,18.10
2023-10-04T03:43:50.340Z,18.00
2023-10-04T03:46:20.586Z,18.10
2023-10-04T03:48:51.366Z,18.00
2023-10-04T03:51:22.477Z,18.10
2023-10-04T03:53:52.720Z,18.10
2023-10-04T03:56:23.444Z,18.10
2023-10-04T03:58:52.463Z,18.00
2023-10-04T04:01:22.629Z,17.90
2023-10-04T04:03:51.757Z,17.90
2023-10-04T04:06:20.630Z,17.80
2023-10-04T04:08:49.214Z,17.70
2023-10-04T04:11:18.854Z,17.70
2023-10-04T04:13:47.341Z,17.70
2023-10-04T04:16:19.152Z,17.70
2023-10-04T04:18:53.297Z,17.50
2023-10-04T04:21:21.805Z,17.40
2023-10-04T04:23:50.653Z,17.50
2023-10-04T04:26:24.920Z,17.50
2023-10-04T04:28:56.734Z,17.50
2023-10-04T04:31:27.271Z,17.50
2023-10-04T04:33:57.502Z,17.50
2023-10-04T04:36:29.242Z,17.50
2023-10-04T04:38:58.333Z,17.40
2023-10-04T04:41:27.614Z,17.40
2023-10-04T04:43:57.241Z,17.40
2023-10-04T04:46:25.814Z,17.30
2023-10-04T04:48:56.553Z,17.30
2023-10-04T04:51:26.640Z,17.30
2023-10-04T04:53:55.176Z,17.30
2023-10-04T04:56:25.321Z,17.30
2023-10-04T04:58:57.897Z,17.20
2023-10-04T05:01:27.477Z,17.20
2023-10-04T05:03:56.050Z,17.10
2023-10-04T05:06:26.790Z,17.10
2023-10-04T05:08:58.226Z,17.10
2023-10-04T05:11:27.186Z,17.10
2023-10-04T05:13:56.980Z,17.10
2023-10-04T05:16:26.738Z,17.20
2023-10-04T05:18:56.080Z,17.20
2023-10-04T05:21:26.317Z,17.10
2023-10-04T05:23:57.656Z,17.00
2023-10-04T05:26:26.319Z,16.90
2023-10-04T05:28:55.117Z,17.10
2023-10-04T05:31:23.671Z,17.10
2023-10-04T05:33:52.264Z,17.10
2023-10-04T05:36:21.514Z,17.10
2023-10-04T05:38:51.392Z,17.10
2023-10-04T05:41:20.817Z,17.00
2023-10-04T05:43:50.565Z,17.10
2023-10-04T05:46:19.726Z,17.10
2023-10-04T05:48:50.018Z,17.10
2023-10-04T05:51:19.077Z,17.10
2023-10-04T05:53:49.217Z,17.00
2023-10-04T05:56:23.184Z,17.00
2023-10-04T05:58:51.616Z,16.90
2023-10-04T06:01:21.202Z,16.90
2023-10-04T06:03:50.763Z,17.00
2023-10-04T06:06:19.442Z,16.80
2023-10-04T06:08:47.947Z,17.00
2023-10-04T06:11:16.367Z,17.50
2023-10-04T06:13:46.236Z,18.00
2023-10-04T06:16:20.965Z,18.80
2023-10-04T06:18:50.769Z,19.60
2023-10-04T06:21:19.317Z,20.10
2023-10-04T06:23:49.473Z,20.50
2023-10-04T06:26:18.290Z,21.30
2023-10-04T06:28:48.560Z,22.00
2023-10-04T06:31:19.131Z,22.30
2023-10-04T06:33:48.856Z,22.90
2023-10-04T06:36:17.411Z,23.20
2023-10-04T06:38:45.873Z,23.10
2023-10-04T06:41:14.333Z,22.60
2023-10-04T06:43:42.717Z,22.00
2023-10-04T06:46:13.764Z,21.90
2023-10-04T06:48:43.202Z,21.80
2023-10-04T06:51:12.360Z,21.30
2023-10-04T06:53:44.817Z,20.90
2023-10-04T06:56:13.559Z,20.60
2023-10-04T06:58:42.317Z,20.40
2023-10-04T07:01:12.744Z,19.80
2023-10-04T07:03:41.317Z,19.80
2023-10-04T07:06:10.759Z,19.70
2023-10-04T07:08:40.561Z,19.50
2023-10-04T07:11:09.055Z,19.50
2023-10-04T07:13:38.302Z,19.40
2023-10-04T07:16:06.957Z,19.40
2023-10-04T07:18:37.818Z,19.50
2023-10-04T07:21:06.278Z,19.50
2023-10-04T07:23:42.966Z,19.50
2023-10-04T07:26:11.633Z,19.40
2023-10-04T07:28:41.705Z,19.40
2023-10-04T07:31:10.691Z,19.60
2023-10-04T07:33:40.618Z,19.70
2023-10-04T07:36:09.277Z,20.20
2023-10-04T07:38:37.930Z,20.50
2023-10-04T07:41:07.061Z,20.60
2023-10-04T07:43:37.407Z,20.70
2023-10-04T07:46:06.613Z,20.90
2023-10-04T07:48:37.127Z,21.20
2023-10-04T07:51:08.045Z,21.40
2023-10-04T07:53:36.697Z,21.60
2023-10-04T07:56:05.482Z,21.80
2023-10-04T07:58:34.109Z,21.50
2023-10-04T08:01:02.872Z,21.30
2023-10-04T08:03:31.629Z,21.50
2023-10-04T08:06:00.221Z,21.60
2023-10-04T08:08:30.058Z,22.30
2023-10-04T08:10:58.572Z,23.00
2023-10-04T08:13:27.733Z,22.90
2023-10-04T08:15:56.309Z,22.80
2023-10-04T08:18:25.691Z,22.60
2023-10-04T08:20:54.360Z,22.50
2023-10-04T08:23:23.011Z,22.00
2023-10-04T08:25:53.200Z,22.10
2023-10-04T08:28:21.728Z,22.00
2023-10-04T08:30:52.706Z,21.80
2023-10-04T08:33:22.344Z,21.70
2023-10-04T08:35:50.825Z,21.70
2023-10-04T08:38:19.264Z,21.50
2023-10-04T08:40:48.079Z,21.30
2023-10-04T08:43:18.562Z,21.30
2023-10-04T08:45:48.689Z,21.10
2023-10-04T08:48:17.756Z,21.00
2023-10-04T08:50:56.296Z,20.90
2023-10-04T08:53:36.795Z,21.10
2023-10-04T08:56:09.627Z,21.00
2023-10-04T08:58:41.429Z,21.00
2023-10-04T09:01:10.168Z,20.90
2023-10-04T09:03:40.643Z,21.00
2023-10-04T09:06:12.935Z,21.00
2023-10-04T09:08:42.829Z,21.00
2023-10-04T09:11:12.824Z,20.90
2023-10-04T09:13:48.716Z,20.90
2023-10-04T09:16:23.688Z,20.90
2023-10-04T09:19:08.406Z,21.00
2023-10-04T09:21:39.933Z,20.90
2023-10-04T09:24:11.719Z,21.30
2023-10-04T09:26:42.248Z,21.30
2023-10-04T09:29:12.588Z,21.40
2023-10-04T09:31:55.324Z,21.40
2023-10-04T09:34:24.354Z,21.30
2023-10-04T09:36:55.067Z,21.30
2023-10-04T09:39:29.199Z,21.00
2023-10-04T09:41:58.689Z,20.90
2023-10-04T09:44:30.791Z,21.00
2023-10-04T09:47:01.927Z,21.00
2023-10-04T09:49:33.316Z,20.80
2023-10-04T09:52:02.997Z,20.80
2023-10-04T09:54:32.509Z,20.70
2023-10-04T09:57:02.306Z,20.70
2023-10-04T09:59:33.256Z,20.70
2023-10-04T10:02:02.980Z,20.70
2023-10-04T10:04:32.717Z,20.70
2023-10-04T10:07:11.148Z,20.60
2023-10-04T10:10:00.404Z,20.60
2023-10-04T10:12:32.520Z,20.70
2023-10-04T10:15:05.349Z,20.60
2023-10-04T10:17:35.695Z,20.60
2023-10-04T10:20:06.867Z,20.50
2023-10-04T10:22:35.455Z,20.50
2023-10-04T10:25:16.514Z,20.50
2023-10-04T10:27:46.342Z,20.60
2023-10-04T10:30:19.755Z,20.60
2023-10-04T10:32:54.810Z,20.80
2023-10-04T10:35:58.422Z,21.30
2023-10-04T10:38:31.407Z,21.60
2023-10-04T10:41:00.175Z,21.60
2023-10-04T10:43:28.703Z,21.50
2023-10-04T10:45:58.983Z,21.50
2023-10-04T10:48:35.322Z,21.30
2023-10-04T10:51:04.126Z,21.30
2023-10-04T10:53:33.090Z,21.30
2023-10-04T10:56:02.604Z,21.20
2023-10-04T10:58:31.438Z,21.20
2023-10-04T11:01:02.799Z,21.30
2023-10-04T11:03:32.927Z,21.40
2023-10-04T11:06:01.655Z,21.40
2023-10-04T11:08:31.451Z,21.50
2023-10-04T11:11:01.625Z,21.60
2023-10-04T11:13:35.129Z,22.00
2023-10-04T11:16:09.044Z,22.20
2023-10-04T11:18:40.202Z,22.30
2023-10-04T11:21:09.860Z,21.70
2023-10-04T11:23:38.815Z,21.40
2023-10-04T11:26:08.730Z,21.80
2023-10-04T11:28:37.332Z,22.00
2023-10-04T11:31:08.113Z,22.00
2023-10-04T11:33:51.482Z,22.00
2023-10-04T11:36:24.722Z,21.80
2023-10-04T11:38:53.361Z,21.70
2023-10-04T11:41:21.924Z,21.80
2023-10-04T11:43:54.996Z,22.00
2023-10-04T11:46:25.187Z,22.10
2023-10-04T11:49:12.840Z,22.50
2023-10-04T11:51:41.704Z,22.80
2023-10-04T11:54:11.068Z,22.90
2023-10-04T11:56:43.399Z,23.00
2023-10-04T11:59:12.042Z,22.90
2023-10-04T12:01:46.400Z,23.00
2023-10-04T12:04:16.606Z,23.20
2023-10-04T12:06:46.411Z,23.00
2023-10-04T12:09:14.953Z,22.60
2023-10-04T12:11:44.447Z,22.50
2023-10-04T12:14:13.232Z,22.70
2023-10-04T12:16:43.236Z,22.80
2023-10-04T12:19:13.339Z,22.90
2023-10-04T12:21:41.852Z,22.80
2023-10-04T12:24:11.700Z,22.80
2023-10-04T12:26:40.107Z,22.60
2023-10-04T12:29:09.053Z,22.60
2023-10-04T12:31:37.910Z,22.70
2023-10-04T12:34:06.926Z,22.70
2023-10-04T12:36:54.233Z,22.70
2023-10-04T12:39:24.114Z,22.60
2023-10-04T12:41:53.769Z,22.60
2023-10-04T12:44:22.367Z,22.60
2023-10-04T12:46:51.080Z,22.70
2023-10-04T12:49:20.097Z,22.90
2023-10-04T12:51:50.139Z,22.70
2023-10-04T12:54:20.596Z,22.60
2023-10-04T12:56:53.803Z,22.60
2023-10-04T12:59:24.802Z,22.60
2023-10-04T13:01:55.956Z,22.60
2023-10-04T13:04:24.642Z,22.60
2023-10-04T13:06:57.117Z,22.50
2023-10-04T13:09:28.852Z,22.50
2023-10-04T13:11:57.676Z,22.60
2023-10-04T13:14:26.264Z,22.50
2023-10-04T13:16:54.763Z,22.60
2023-10-04T13:19:23.664Z,22.50
2023-10-04T13:21:52.767Z,22.40
2023-10-04T13:24:22.673Z,22.40
2023-10-04T13:26:51.302Z,22.40
2023-10-04T13:29:19.830Z,22.30
2023-10-04T13:31:48.905Z,22.30
2023-10-04T13:34:17.757Z,22.30
2023-10-04T13:36:47.389Z,22.30
2023-10-04T13:39:18.602Z,22.40
2023-10-04T13:41:48.557Z,22.30
2023-10-04T13:44:17.279Z,22.40
2023-10-04T13:46:47.269Z,22.30
2023-10-04T13:49:15.869Z,22.30
2023-10-04T13:51:44.880Z,22.30
2023-10-04T13:54:13.602Z,22.30
2023-10-04T13:56:43.477Z,22.20
2023-10-04T13:59:13.477Z,22.20
2023-10-04T14:01:43.521Z,22.20
2023-10-04T14:04:12.528Z,22.10
2023-10-04T14:06:41.055Z,22.10
2023-10-04T14:09:13.303Z,22.10
2023-10-04T14:11:41.935Z,22.10
2023-10-04T14:14:10.863Z,22.00
2023-10-04T14:16:43.298Z,22.00
2023-10-04T14:19:12.725Z,22.00
2023-10-04T14:21:42.008Z,21.90
2023-10-04T14:24:11.273Z,21.90
2023-10-04T14:26:40.027Z,21.90
2023-10-04T14:29:08.523Z,21.80
2023-10-04T14:31:37.169Z,21.80
2023-10-04T14:34:07.232Z,21.80
2023-10-04T14:36:39.772Z,21.80
2023-10-04T14:39:09.616Z,21.70
2023-10-04T14:41:38.175Z,21.70
2023-10-04T14:44:07.669Z,21.70
2023-10-04T14:46:36.276Z,21.70
2023-10-04T14:49:07.110Z,21.60
2023-10-04T14:51:35.703Z,21.60
2023-10-04T14:54:05.096Z,21.60
2023-10-04T14:56:33.837Z,21.50
2023-10-04T14:59:02.297Z,21.50
2023-10-04T15:01:30.840Z,21.50
2023-10-04T15:03:59.692Z,21.50
2023-10-04T15:06:31.091Z,21.50
2023-10-04T15:08:59.654Z,21.50
2023-10-04T15:11:30.586Z,21.40
2023-10-04T15:13:59.920Z,21.30
2023-10-04T15:16:29.867Z,21.30
2023-10-04T15:18:58.444Z,21.30
2023-10-04T15:21:27.952Z,21.30
2023-10-04T15:24:02.232Z,21.20
2023-10-04T15:26:32.702Z,21.20
2023-10-04T15:29:04.217Z,21.20
2023-10-04T15:31:32.940Z,21.10
2023-10-04T15:34:01.500Z,21.10
2023-10-04T15:36:30.090Z,21.00
2023-10-04T15:39:00.339Z,21.00
2023-10-04T15:41:28.767Z,20.90
2023-10-04T15:43:57.379Z,20.80
2023-10-04T15:46:26.549Z,20.70
2023-10-04T15:48:55.040Z,20.60
2023-10-04T15:51:23.585Z,20.50
2023-10-04T15:53:53.413Z,20.40
2023-10-04T15:56:23.415Z,20.40
2023-10-04T15:58:51.908Z,20.30
2023-10-04T16:01:20.541Z,20.00
2023-10-04T16:03:49.727Z,19.90
2023-10-04T16:06:18.555Z,19.70
2023-10-04T16:08:48.981Z,19.70
2023-10-04T16:11:17.664Z,19.60
2023-10-04T16:13:47.679Z,19.50
2023-10-04T16:16:16.301Z,19.40
2023-10-04T16:18:44.863Z,19.30
2023-10-04T16:21:13.428Z,19.20
2023-10-04T16:23:42.094Z,19.00
2023-10-04T16:26:14.829Z,19.00
2023-10-04T16:28:43.437Z,18.90
2023-10-04T16:31:13.515Z,18.90
2023-10-04T16:33:42.209Z,18.80
2023-10-04T16:36:13.388Z,18.80
2023-10-04T16:38:43.199Z,18.80
2023-10-04T16:41:12.107Z,18.70
2023-10-04T16:43:41.068Z,18.60
2023-10-04T16:46:10.715Z,18.40
2023-10-04T16:48:41.172Z,18.30
2023-10-04T16:51:10.909Z,18.30
2023-10-04T16:53:39.374Z,18.20
2023-10-04T16:56:12.088Z,18.10
2023-10-04T16:58:41.279Z,18.10
2023-10-04T17:01:09.861Z,18.10
2023-10-04T17:03:38.400Z,18.10
2023-10-04T17:06:08.533Z,18.00
2023-10-04T17:08:37.345Z,17.90
2023-10-04T17:11:05.821Z,17.90
2023-10-04T17:13:34.497Z,17.80
2023-10-04T17:16:03.523Z,17.70
2023-10-04T17:18:32.454Z,17.70
2023-10-04T17:21:01.621Z,17.60
2023-10-04T17:23:31.525Z,17.60
2023-10-04T17:26:00.202Z,17.50
2023-10-04T17:28:30.080Z,17.50
2023-10-04T17:30:58.840Z,17.50
2023-10-04T17:33:28.697Z,17.50
2023-10-04T17:35:59.953Z,17.50
2023-10-04T17:38:28.654Z,17.50
2023-10-04T17:41:00.211Z,17.40
2023-10-04T17:43:28.925Z,17.20
2023-10-04T17:45:58.781Z,17.10
2023-10-04T17:48:27.899Z,17.10
2023-10-04T17:50:56.587Z,17.10
2023-10-04T17:53:25.132Z,17.20
2023-10-04T17:55:53.597Z,17.20
2023-10-04T17:58:23.573Z,17.10
2023-10-04T18:00:52.123Z,17.10
2023-10-04T18:03:20.994Z,17.00
2023-10-04T18:05:50.557Z,17.10
2023-10-04T18:08:20.079Z,17.10
2023-10-04T18:10:49.212Z,16.80
2023-10-04T18:13:17.742Z,16.60
2023-10-04T18:15:48.613Z,16.60
2023-10-04T18:18:18.668Z,16.50
2023-10-04T18:20:48.636Z,16.50
2023-10-04T18:23:20.309Z,16.60
2023-10-04T18:25:52.888Z,16.60
2023-10-04T18:28:21.367Z,16.50
2023-10-04T18:30:51.543Z,16.50
2023-10-04T18:33:22.949Z,16.50
2023-10-04T18:35:51.603Z,16.30
2023-10-04T18:38:20.106Z,16.30
2023-10-04T18:40:48.739Z,16.30
2023-10-04T18:43:17.304Z,16.30
2023-10-04T18:45:45.878Z,16.20
2023-10-04T18:48:16.272Z,16.10
2023-10-04T18:50:44.998Z,16.20
2023-10-04T18:53:13.521Z,16.10
2023-10-04T18:55:43.122Z,16.10
2023-10-04T18:58:14.972Z,16.10
2023-10-04T19:00:44.458Z,16.00
2023-10-04T19:03:13.135Z,16.00
2023-10-04T19:05:43.650Z,16.10
2023-10-04T19:08:12.240Z,16.20
2023-10-04T19:10:41.912Z,16.00
2023-10-04T19:13:10.659Z,15.90
2023-10-04T19:15:39.436Z,16.00
2023-10-04T19:18:09.386Z,15.90
2023-10-04T19:20:38.019Z,16.10
2023-10-04T19:23:09.707Z,16.10
2023-10-04T19:25:38.259Z,16.20
2023-10-04T19:28:07.349Z,16.20
2023-10-04T19:30:38.246Z,16.30
2023-10-04T19:33:07.489Z,16.40
2023-10-04T19:35:35.956Z,16.40
2023-10-04T19:38:06.070Z,16.50
2023-10-04T19:40:36.029Z,16.50
2023-10-04T19:43:04.834Z,16.50
2023-10-04T19:45:33.510Z,16.10
2023-10-04T19:48:04.631Z,15.80
2023-10-04T19:50:33.208Z,15.60
2023-10-04T19:53:01.819Z,15.60
2023-10-04T19:55:30.323Z,15.70
2023-10-04T19:58:00.590Z,15.80
2023-10-04T20:00:31.436Z,15.80
2023-10-04T20:03:02.369Z,15.70
2023-10-04T20:05:32.992Z,15.70
2023-10-04T20:08:03.364Z,15.80
2023-10-04T20:10:34.192Z,15.70
2023-10-04T20:13:05.063Z,15.70
2023-10-04T20:15:38.944Z,15.60
2023-10-04T20:18:09.522Z,15.70
2023-10-04T20:20:39.399Z,15.60
2023-10-04T20:23:08.488Z,15.60
2023-10-04T20:25:38.478Z,15.50
2023-10-04T20:28:08.710Z,15.60
2023-10-04T20:30:37.550Z,15.50
2023-10-04T20:33:06.973Z,15.50
2023-10-04T20:35:35.663Z,15.50
2023-10-04T20:38:04.534Z,15.30
2023-10-04T20:40:33.005Z,15.60
2023-10-04T20:43:02.941Z,15.60
2023-10-04T20:45:33.608Z,15.70
2023-10-04T20:48:02.180Z,15.70
2023-10-04T20:50:31.154Z,15.40
2023-10-04T20:52:59.754Z,15.30
2023-10-04T20:55:28.573Z,15.20
2023-10-04T20:57:57.098Z,15.00
2023-10-04T21:00:26.861Z,15.10
2023-10-04T21:02:57.295Z,15.00
2023-10-04T21:05:26.695Z,15.10
2023-10-04T21:07:55.583Z,15.00
2023-10-04T21:10:24.218Z,15.00
2023-10-04T21:12:52.854Z,15.00
2023-10-04T21:15:21.514Z,15.10
2023-10-04T21:17:50.085Z,15.10
2023-10-04T21:20:20.560Z,15.20
2023-10-04T21:22:50.048Z,15.20
2023-10-04T21:25:20.047Z,15.20
2023-10-04T21:27:48.877Z,15.10
2023-10-04T21:30:17.976Z,15.10
2023-10-04T21:32:56.686Z,15.10
2023-10-04T21:35:32.133Z,15.20
2023-10-04T21:38:01.271Z,15.10
2023-10-04T21:40:30.445Z,15.20
2023-10-04T21:43:00.249Z,15.20
2023-10-04T21:45:32.153Z,15.20
2023-10-04T21:48:04.915Z,15.20
2023-10-04T21:50:37.097Z,15.30
2023-10-04T21:53:06.996Z,15.30
2023-10-04T21:55:35.528Z,15.30
2023-10-04T21:58:04.079Z,15.40
2023-10-04T22:00:35.723Z,15.30
2023-10-04T22:03:05.514Z,15.40
2023-10-04T22:05:38.467Z,15.30
2023-10-04T22:08:09.696Z,15.40
2023-10-04T22:10:39.274Z,15.40
2023-10-04T22:13:08.923Z,15.40
2023-10-04T22:15:38.928Z,15.40
2023-10-04T22:18:07.856Z,15.40
2023-10-04T22:20:37.847Z,15.40
2023-10-04T22:23:07.625Z,15.30
2023-10-04T22:25:36.819Z,15.30
2023-10-04T22:28:05.963Z,15.30
2023-10-04T22:30:35.204Z,15.30
2023-10-04T22:33:05.788Z,15.20
2023-10-04T22:35:36.840Z,15.20
2023-10-04T22:38:07.016Z,15.10
2023-10-04T22:40:36.189Z,15.10
2023-10-04T22:43:06.619Z,15.20
2023-10-04T22:45:35.168Z,15.20
2023-10-04T22:48:04.852Z,15.10
2023-10-04T22:50:33.460Z,15.00
2023-10-04T22:53:01.969Z,14.90
2023-10-04T22:55:31.875Z,14.90
2023-10-04T22:58:02.070Z,14.90
2023-10-04T23:00:30.536Z,14.90
2023-10-04T23:02:59.509Z,15.00
2023-10-04T23:05:28.347Z,15.10
2023-10-04T23:07:57.235Z,15.00
2023-10-04T23:10:27.281Z,14.80
2023-10-04T23:12:58.706Z,14.80
2023-10-04T23:15:30.543Z,14.70
2023-10-04T23:18:10.252Z,14.70
2023-10-04T23:20:41.270Z,14.60
2023-10-04T23:23:12.736Z,14.60
2023-10-04T23:25:44.687Z,14.60
2023-10-04T23:28:16.789Z,14.60
2023-10-04T23:30:48.372Z,14.60
2023-10-04T23:33:20.453Z,14.50
2023-10-04T23:35:55.184Z,14.50
2023-10-04T23:38:40.009Z,14.40
2023-10-04T23:41:20.777Z,14.50
2023-10-04T23:43:50.621Z,14.60
2023-10-04T23:46:26.261Z,14.60
2023-10-04T23:48:57.753Z,14.60
2023-10-04T23:51:26.705Z,14.50
2023-10-04T23:54:03.059Z,14.50
2023-10-04T23:56:38.820Z,14.50
2023-10-04T23:59:08.687Z,14.40
